createdAt,value
2022-12-17T00:00:05.173Z,21.80
2022-12-17T00:02:50.739Z,20.67
2022-12-17T00:05:36.127Z,18.57
2022-12-17T00:08:21.473Z,19.03
2022-12-17T00:11:07.114Z,18.87
2022-12-17T00:13:53.790Z,20.20
2022-12-17T00:16:40.785Z,18.97
2022-12-17T00:19:26.262Z,18.83
2022-12-17T00:22:11.879Z,19.87
2022-12-17T00:24:57.170Z,22.63
2022-12-17T00:27:42.888Z,24.13
2022-12-17T00:30:29.055Z,21.30
2022-12-17T00:33:14.374Z,22.73
2022-12-17T00:35:59.898Z,19.83
2022-12-17T00:38:45.181Z,17.87
2022-12-17T00:41:30.594Z,19.90
2022-12-17T00:44:15.994Z,23.33
2022-12-17T00:47:01.267Z,21.13
2022-12-17T00:49:46.819Z,24.90
2022-12-17T00:52:32.005Z,16.03
2022-12-17T00:55:17.412Z,19.00
2022-12-17T00:58:02.994Z,20.33
2022-12-17T01:00:48.788Z,20.40
2022-12-17T01:03:34.788Z,21.50
2022-12-17T01:06:21.707Z,17.10
2022-12-17T01:09:07.064Z,16.87
2022-12-17T01:11:52.602Z,16.90
2022-12-17T01:14:42.410Z,18.77
2022-12-17T01:17:27.714Z,18.33
2022-12-17T01:20:13.106Z,21.43
2022-12-17T01:22:58.303Z,21.03
2022-12-17T01:25:43.652Z,16.53
2022-12-17T01:28:29.099Z,19.73
2022-12-17T01:31:16.988Z,21.63
2022-12-17T01:34:02.400Z,22.97
2022-12-17T01:36:47.493Z,18.37
2022-12-17T01:39:32.848Z,21.57
2022-12-17T01:42:18.195Z,19.73
2022-12-17T01:45:09.312Z,19.37
2022-12-17T01:48:21.395Z,15.60
2022-12-17T01:51:11.975Z,16.30
2022-12-17T01:54:03.252Z,18.70
2022-12-17T01:56:48.769Z,18.53
2022-12-17T01:59:37.008Z,19.57
2022-12-17T02:02:22.488Z,20.97
2022-12-17T02:05:08.187Z,15.33
2022-12-17T02:08:02.631Z,20.27
2022-12-17T02:10:48.051Z,15.93
2022-12-17T02:13:49.882Z,17.60
2022-12-17T02:16:42.917Z,16.73
2022-12-17T02:20:06.051Z,20.47
2022-12-17T02:22:51.180Z,16.20
2022-12-17T02:26:09.859Z,17.97
2022-12-17T02:28:57.617Z,21.63
2022-12-17T02:31:44.499Z,18.03
2022-12-17T02:34:30.067Z,18.13
2022-12-17T02:37:15.787Z,17.93
2022-12-17T02:40:01.426Z,18.23
2022-12-17T02:42:48.567Z,16.03
2022-12-17T02:45:36.030Z,14.20
2022-12-17T02:48:35.663Z,13.60
2022-12-17T02:51:21.162Z,16.80
2022-12-17T02:54:11.962Z,17.50
2022-12-17T02:56:57.784Z,15.57
2022-12-17T02:59:43.207Z,14.97
2022-12-17T03:02:28.658Z,16.23
2022-12-17T03:05:42.986Z,13.00
2022-12-17T03:08:19.678Z,19.33
2022-12-17T03:11:05.028Z,19.80
2022-12-17T03:13:50.313Z,18.27
2022-12-17T03:16:38.062Z,16.27
2022-12-17T03:19:23.812Z,14.90
2022-12-17T03:22:09.503Z,14.10
2022-12-17T03:24:54.927Z,17.17
2022-12-17T03:27:40.159Z,14.63
2022-12-17T03:30:26.006Z,15.60
2022-12-17T03:33:11.571Z,11.73
2022-12-17T03:35:57.093Z,13.10
2022-12-17T03:38:42.552Z,20.70
2022-12-17T03:41:27.972Z,25.33
2022-12-17T03:44:13.282Z,23.33
2022-12-17T03:47:00.328Z,16.93
2022-12-17T03:49:45.558Z,14.60
2022-12-17T03:52:30.863Z,11.80
2022-12-17T03:55:16.355Z,12.50
2022-12-17T03:58:01.768Z,10.70
2022-12-17T04:00:47.180Z,12.33
2022-12-17T04:03:32.579Z,11.60
2022-12-17T04:06:18.273Z,18.17
2022-12-17T04:09:06.501Z,14.87
2022-12-17T04:11:51.899Z,13.10
2022-12-17T04:14:41.497Z,12.57
2022-12-17T04:17:26.706Z,15.70
2022-12-17T04:20:12.034Z,14.33
2022-12-17T04:22:57.383Z,12.33
2022-12-17T04:25:42.634Z,13.53
2022-12-17T04:28:27.934Z,16.67
2022-12-17T04:31:13.353Z,17.87
2022-12-17T04:33:58.764Z,11.47
2022-12-17T04:36:44.113Z,13.57
2022-12-17T04:39:29.443Z,12.17
2022-12-17T04:42:14.794Z,11.50
2022-12-17T04:45:00.109Z,10.73
2022-12-17T04:47:45.491Z,15.43
2022-12-17T04:50:30.574Z,14.43
2022-12-17T04:53:24.010Z,11.17
2022-12-17T04:56:09.375Z,12.37
2022-12-17T04:58:54.811Z,13.33
2022-12-17T05:01:40.137Z,11.20
2022-12-17T05:04:25.780Z,12.80
2022-12-17T05:07:11.247Z,15.37
2022-12-17T05:09:56.751Z,14.03
2022-12-17T05:12:42.143Z,12.50
2022-12-17T05:15:27.622Z,10.37
2022-12-17T05:18:12.970Z,12.90
2022-12-17T05:20:58.459Z,10.77
2022-12-17T05:23:43.728Z,10.90
2022-12-17T05:26:44.114Z,9.73
2022-12-17T05:29:30.085Z,11.93
2022-12-17T05:32:15.627Z,10.77
2022-12-17T05:35:00.983Z,11.60
2022-12-17T05:37:46.442Z,11.57
2022-12-17T05:40:31.827Z,11.43
2022-12-17T05:43:20.137Z,13.87
2022-12-17T05:46:06.328Z,12.03
2022-12-17T05:48:53.015Z,11.33
2022-12-17T05:51:39.231Z,11.97
2022-12-17T05:54:25.746Z,9.80
2022-12-17T05:57:11.604Z,10.53
2022-12-17T05:59:57.333Z,12.63
2022-12-17T06:02:43.001Z,12.73
2022-12-17T06:05:29.176Z,9.70
2022-12-17T06:08:25.759Z,10.43
2022-12-17T06:11:11.715Z,12.10
2022-12-17T06:13:57.629Z,12.13
2022-12-17T06:16:42.814Z,10.37
2022-12-17T06:19:28.225Z,11.20
2022-12-17T06:22:13.830Z,11.00
2022-12-17T06:24:59.401Z,10.83
2022-12-17T06:27:44.791Z,14.23
2022-12-17T06:30:30.651Z,12.13
2022-12-17T06:33:26.675Z,10.93
2022-12-17T06:36:21.288Z,9.40
2022-12-17T06:39:07.083Z,10.70
2022-12-17T06:41:52.695Z,9.63
2022-12-17T06:44:38.138Z,10.83
2022-12-17T06:47:23.926Z,10.63
2022-12-17T06:50:09.215Z,11.83
2022-12-17T06:52:54.400Z,11.23
2022-12-17T06:55:39.615Z,12.03
2022-12-17T06:58:25.014Z,10.47
2022-12-17T07:01:10.556Z,10.53
2022-12-17T07:03:56.565Z,8.57
2022-12-17T07:06:41.760Z,11.13
2022-12-17T07:09:27.123Z,11.63
2022-12-17T07:12:12.492Z,9.30
2022-12-17T07:14:58.031Z,12.47
2022-12-17T07:17:43.335Z,13.53
2022-12-17T07:20:29.328Z,10.67
2022-12-17T07:23:14.994Z,13.27
2022-12-17T07:26:00.897Z,9.10
2022-12-17T07:28:46.069Z,10.13
2022-12-17T07:31:31.448Z,10.73
2022-12-17T07:34:16.782Z,10.70
2022-12-17T07:37:02.486Z,9.13
2022-12-17T07:39:48.011Z,12.37
2022-12-17T07:42:33.322Z,10.67
2022-12-17T07:45:18.659Z,9.60
2022-12-17T07:48:11.057Z,9.97
2022-12-17T07:50:56.368Z,10.63
2022-12-17T07:53:49.443Z,10.07
2022-12-17T07:56:34.795Z,9.73
2022-12-17T07:59:20.052Z,11.73
2022-12-17T08:02:05.739Z,18.90
2022-12-17T08:04:51.160Z,11.47
2022-12-17T08:07:36.535Z,10.47
2022-12-17T08:10:23.075Z,9.33
2022-12-17T08:13:23.363Z,10.00
2022-12-17T08:16:11.652Z,9.23
2022-12-17T08:18:57.782Z,9.10
2022-12-17T08:21:43.344Z,13.63
2022-12-17T08:24:28.638Z,10.13
2022-12-17T08:27:13.846Z,10.57
2022-12-17T08:29:59.079Z,11.90
2022-12-17T08:32:44.430Z,13.40
2022-12-17T08:35:29.793Z,10.53
2022-12-17T08:38:23.081Z,10.77
2022-12-17T08:41:08.684Z,9.90
2022-12-17T08:43:54.172Z,12.97
2022-12-17T08:46:39.511Z,12.07
2022-12-17T08:49:24.674Z,9.87
2022-12-17T08:52:10.064Z,14.43
2022-12-17T08:54:55.636Z,14.57
2022-12-17T08:57:41.020Z,14.10
2022-12-17T09:00:27.120Z,11.43
2022-12-17T09:03:17.272Z,14.90
2022-12-17T09:06:03.040Z,13.63
2022-12-17T09:08:48.836Z,10.70
2022-12-17T09:11:34.018Z,10.23
2022-12-17T09:14:19.313Z,11.40
2022-12-17T09:17:04.651Z,10.63
2022-12-17T09:19:51.344Z,12.50
2022-12-17T09:22:36.579Z,10.10
2022-12-17T09:25:21.911Z,10.03
2022-12-17T09:28:07.290Z,12.53
2022-12-17T09:30:52.914Z,11.40
2022-12-17T09:33:38.883Z,11.07
2022-12-17T09:36:24.871Z,8.47
2022-12-17T09:39:10.178Z,10.13
2022-12-17T09:42:17.177Z,12.43
2022-12-17T09:45:17.971Z,13.13
2022-12-17T09:48:21.661Z,11.23
2022-12-17T09:51:10.083Z,10.07
2022-12-17T09:54:06.036Z,14.57
2022-12-17T09:56:52.501Z,14.07
2022-12-17T09:59:41.808Z,11.50
2022-12-17T10:02:38.820Z,10.83
2022-12-17T10:05:28.210Z,12.47
2022-12-17T10:08:13.853Z,15.07
2022-12-17T10:11:04.699Z,12.83
2022-12-17T10:13:50.255Z,12.57
2022-12-17T10:16:44.654Z,9.70
2022-12-17T10:19:52.792Z,10.07
2022-12-17T10:22:39.671Z,9.60
2022-12-17T10:25:31.536Z,10.20
2022-12-17T10:28:39.316Z,11.50
2022-12-17T10:31:39.605Z,11.33
2022-12-17T10:34:34.908Z,10.17
2022-12-17T10:37:20.588Z,14.37
2022-12-17T10:40:18.637Z,9.60
2022-12-17T10:43:05.344Z,7.77
2022-12-17T10:45:54.155Z,9.93
2022-12-17T10:48:47.770Z,9.33
2022-12-17T10:51:38.895Z,9.90
2022-12-17T10:54:49.368Z,11.40
2022-12-17T10:57:55.323Z,13.07
2022-12-17T11:00:50.083Z,14.23
2022-12-17T11:03:54.135Z,11.07
2022-12-17T11:06:47.549Z,10.97
2022-12-17T11:09:55.938Z,8.90
2022-12-17T11:12:46.847Z,12.70
2022-12-17T11:15:38.804Z,13.00
2022-12-17T11:18:29.330Z,10.70
2022-12-17T11:21:39.893Z,9.43
2022-12-17T11:24:58.336Z,10.13
2022-12-17T11:27:48.737Z,10.03
2022-12-17T11:30:35.634Z,10.07
2022-12-17T11:33:23.823Z,8.93
2022-12-17T11:36:39.126Z,8.67
2022-12-17T11:39:41.309Z,8.53
2022-12-17T11:42:48.918Z,9.63
2022-12-17T11:45:37.215Z,9.20
2022-12-17T11:48:31.724Z,9.43
2022-12-17T11:51:25.331Z,8.03
2022-12-17T11:54:22.802Z,7.77
2022-12-17T11:57:14.188Z,8.20
2022-12-17T12:00:20.487Z,12.47
2022-12-17T12:03:18.511Z,7.83
2022-12-17T12:06:16.196Z,8.43
2022-12-17T12:09:24.701Z,9.07
2022-12-17T12:12:54.831Z,7.57
2022-12-17T12:16:06.392Z,8.13
2022-12-17T12:19:03.827Z,8.10
2022-12-17T12:22:30.498Z,10.40
2022-12-17T12:25:44.301Z,8.57
2022-12-17T12:28:56.197Z,10.33
2022-12-17T12:31:50.853Z,8.33
2022-12-17T12:34:41.556Z,10.17
2022-12-17T12:37:32.610Z,8.90
2022-12-17T12:40:33.671Z,8.43
2022-12-17T12:43:31.656Z,11.23
2022-12-17T12:46:35.281Z,7.53
2022-12-17T12:49:49.514Z,13.07
2022-12-17T12:52:41.196Z,11.27
2022-12-17T12:55:26.923Z,6.93
2022-12-17T12:58:17.996Z,9.50
2022-12-17T13:01:06.110Z,6.70
2022-12-17T13:04:03.650Z,9.27
2022-12-17T13:06:44.197Z,9.80
2022-12-17T13:09:17.969Z,8.60
2022-12-17T13:12:00.051Z,9.57
2022-12-17T13:14:28.812Z,8.17
2022-12-17T13:17:08.408Z,8.23
2022-12-17T13:19:38.652Z,7.83
2022-12-17T13:22:23.613Z,8.23
2022-12-17T13:24:55.130Z,10.27
2022-12-17T13:27:36.189Z,7.57
2022-12-17T13:30:18.001Z,6.30
2022-12-17T13:32:56.873Z,9.03
2022-12-17T13:35:50.265Z,7.80
2022-12-17T13:38:42.804Z,7.20
2022-12-17T13:41:13.312Z,6.17
2022-12-17T13:44:02.671Z,6.53
2022-12-17T13:46:46.909Z,6.20
2022-12-17T13:49:26.320Z,6.80
2022-12-17T13:52:21.321Z,5.80
2022-12-17T13:54:48.126Z,6.80
2022-12-17T13:57:18.331Z,6.10
2022-12-17T13:59:52.184Z,7.23
2022-12-17T14:02:29.557Z,7.70
2022-12-17T14:05:00.719Z,7.93
2022-12-17T14:07:33.739Z,8.40
2022-12-17T14:10:02.247Z,5.87
2022-12-17T14:12:29.996Z,7.17
2022-12-17T14:15:03.473Z,7.53
2022-12-17T14:17:37.790Z,7.63
2022-12-17T14:20:13.265Z,5.40
2022-12-17T14:23:00.022Z,8.57
2022-12-17T14:25:32.097Z,7.13
2022-12-17T14:28:07.223Z,8.87
2022-12-17T14:31:02.571Z,6.87
2022-12-17T14:33:37.823Z,6.83
2022-12-17T14:36:21.233Z,6.23
2022-12-17T14:39:02.515Z,8.63
2022-12-17T14:41:55.749Z,6.77
2022-12-17T14:44:27.493Z,9.57
2022-12-17T14:47:18.806Z,8.27
2022-12-17T14:50:10.429Z,9.23
2022-12-17T14:52:41.590Z,7.93
2022-12-17T14:55:26.599Z,8.77
2022-12-17T14:58:05.892Z,7.93
2022-12-17T15:00:32.719Z,10.00
2022-12-17T15:02:59.756Z,10.07
2022-12-17T15:05:26.623Z,8.43
2022-12-17T15:07:55.309Z,10.63
2022-12-17T15:10:22.170Z,8.63
2022-12-17T15:12:51.387Z,10.97
2022-12-17T15:15:18.351Z,10.77
2022-12-17T15:17:45.188Z,9.37
2022-12-17T15:20:20.334Z,10.03
2022-12-17T15:22:47.819Z,9.77
2022-12-17T15:25:16.161Z,11.63
2022-12-17T15:27:43.008Z,9.90
2022-12-17T15:30:17.215Z,10.23
2022-12-17T15:32:44.854Z,9.07
2022-12-17T15:35:12.591Z,10.70
2022-12-17T15:37:39.823Z,9.87
2022-12-17T15:40:07.492Z,11.97
2022-12-17T15:43:05.927Z,9.43
2022-12-17T15:45:33.479Z,11.97
2022-12-17T15:48:00.325Z,10.90
2022-12-17T15:50:28.435Z,9.67
2022-12-17T15:52:55.129Z,15.40
2022-12-17T15:55:21.865Z,11.33
2022-12-17T15:57:48.604Z,13.23
2022-12-17T16:00:15.601Z,10.77
2022-12-17T16:02:43.698Z,13.47
2022-12-17T16:05:10.633Z,11.00
2022-12-17T16:07:38.083Z,12.17
2022-12-17T16:10:06.609Z,12.83
2022-12-17T16:12:33.950Z,11.23
2022-12-17T16:15:00.750Z,14.90
2022-12-17T16:17:27.683Z,11.97
2022-12-17T16:19:54.531Z,14.63
2022-12-17T16:22:21.730Z,14.70
2022-12-17T16:24:48.796Z,12.03
2022-12-17T16:27:18.171Z,14.87
2022-12-17T16:29:46.838Z,14.37
2022-12-17T16:32:14.372Z,15.40
2022-12-17T16:34:41.134Z,13.03
2022-12-17T16:37:07.858Z,10.83
2022-12-17T16:39:34.638Z,13.57
2022-12-17T16:42:01.580Z,16.60
2022-12-17T16:44:28.438Z,11.80
2022-12-17T16:46:55.282Z,15.53
2022-12-17T16:49:24.040Z,12.30
2022-12-17T16:51:52.691Z,11.80
2022-12-17T16:54:22.247Z,14.37
2022-12-17T16:56:49.931Z,11.90
2022-12-17T16:59:18.602Z,12.87
2022-12-17T17:01:49.087Z,12.27
2022-12-17T17:04:17.641Z,12.13
2022-12-17T17:06:47.042Z,13.43
2022-12-17T17:09:14.212Z,10.60
2022-12-17T17:11:42.598Z,12.07
2022-12-17T17:14:11.674Z,10.27
2022-12-17T17:16:38.665Z,12.70
2022-12-17T17:19:06.444Z,12.03
2022-12-17T17:21:35.129Z,13.10
2022-12-17T17:24:16.783Z,13.10
2022-12-17T17:26:48.129Z,12.13
2022-12-17T17:29:14.886Z,11.80
2022-12-17T17:34:29.304Z,12.43
2022-12-17T17:36:56.048Z,14.17
2022-12-17T17:39:23.002Z,13.00
2022-12-17T17:41:50.118Z,15.60
2022-12-17T17:44:16.968Z,14.33
2022-12-17T17:46:43.952Z,16.10
2022-12-17T17:49:12.432Z,14.50
2022-12-17T17:54:28.705Z,13.03
2022-12-17T17:56:55.489Z,13.83
2022-12-17T17:59:30.990Z,13.70
2022-12-17T18:02:00.512Z,15.13
2022-12-17T18:04:28.023Z,17.90
2022-12-17T18:09:42.364Z,16.00
2022-12-17T18:12:28.001Z,13.10
2022-12-17T18:15:13.730Z,15.97
2022-12-17T18:17:41.411Z,11.73
2022-12-17T18:20:09.785Z,16.80
2022-12-17T18:22:36.860Z,15.47
2022-12-17T18:25:04.403Z,12.90
2022-12-17T18:27:31.251Z,14.97
2022-12-17T18:29:58.026Z,13.70
2022-12-17T18:32:24.798Z,11.73
2022-12-17T18:34:51.654Z,14.23
2022-12-17T18:37:18.554Z,14.57
2022-12-17T18:39:45.275Z,11.73
2022-12-17T18:42:30.755Z,13.60
2022-12-17T18:44:58.256Z,14.73
2022-12-17T18:47:25.654Z,17.10
2022-12-17T18:49:52.516Z,12.20
2022-12-17T18:52:19.500Z,14.97
2022-12-17T18:54:46.315Z,14.47
2022-12-17T18:57:13.329Z,15.23
2022-12-17T18:59:40.958Z,16.90
2022-12-17T19:02:14.876Z,14.60
2022-12-17T19:04:42.310Z,15.10
2022-12-17T19:07:09.985Z,15.97
2022-12-17T19:09:39.572Z,16.27
2022-12-17T19:12:08.566Z,15.13
2022-12-17T19:14:37.163Z,16.67
2022-12-17T19:17:05.933Z,15.73
2022-12-17T19:19:33.231Z,16.90
2022-12-17T19:22:00.440Z,14.00
2022-12-17T19:24:27.746Z,21.30
2022-12-17T19:26:54.759Z,16.83
2022-12-17T19:29:22.016Z,16.67
2022-12-17T19:31:49.044Z,55.47
2022-12-17T19:34:17.482Z,36.87
2022-12-17T19:36:45.394Z,26.37
2022-12-17T19:39:17.409Z,24.40
2022-12-17T19:41:44.451Z,21.13
2022-12-17T19:44:13.572Z,21.00
2022-12-17T19:46:40.748Z,20.50
2022-12-17T19:49:08.524Z,20.53
2022-12-17T19:51:35.329Z,17.50
2022-12-17T19:54:08.452Z,17.83
2022-12-17T19:56:36.610Z,25.77
2022-12-17T19:59:07.260Z,22.57
2022-12-17T20:01:42.687Z,16.80
2022-12-17T20:04:12.801Z,23.33
2022-12-17T20:06:39.547Z,20.27
2022-12-17T20:09:07.188Z,17.30
2022-12-17T20:11:35.260Z,21.93
2022-12-17T20:14:13.095Z,17.40
2022-12-17T20:16:42.761Z,16.73
2022-12-17T20:19:13.280Z,24.43
2022-12-17T20:21:40.370Z,16.93
2022-12-17T20:24:09.831Z,20.33
2022-12-17T20:26:36.953Z,22.40
2022-12-17T20:29:04.999Z,21.40
2022-12-17T20:31:32.219Z,22.47
2022-12-17T20:34:01.417Z,22.47
2022-12-17T20:36:29.389Z,20.00
2022-12-17T20:38:56.403Z,17.33
2022-12-17T20:41:26.039Z,17.43
2022-12-17T20:43:54.135Z,23.97
2022-12-17T20:46:22.346Z,23.37
2022-12-17T20:48:50.059Z,21.97
2022-12-17T20:51:23.435Z,18.73
2022-12-17T20:53:51.167Z,18.77
2022-12-17T20:56:20.814Z,17.33
2022-12-17T20:58:47.739Z,19.60
2022-12-17T21:01:18.977Z,19.73
2022-12-17T21:03:46.583Z,17.67
2022-12-17T21:06:16.997Z,20.53
2022-12-17T21:08:49.583Z,17.53
2022-12-17T21:11:19.255Z,19.63
2022-12-17T21:13:46.584Z,19.33
2022-12-17T21:16:19.210Z,16.07
2022-12-17T21:18:46.287Z,18.00
2022-12-17T21:21:17.858Z,21.27
2022-12-17T21:23:46.291Z,18.07
2022-12-17T21:26:22.454Z,20.50
2022-12-17T21:28:52.517Z,20.40
2022-12-17T21:31:23.781Z,20.00
2022-12-17T21:33:52.221Z,20.43
2022-12-17T21:36:20.981Z,19.50
2022-12-17T21:38:48.759Z,18.50
2022-12-17T21:41:28.106Z,18.07
2022-12-17T21:43:56.366Z,16.40
2022-12-17T21:46:23.974Z,17.23
2022-12-17T21:48:52.394Z,18.30
2022-12-17T21:51:19.547Z,19.77
2022-12-17T21:53:46.909Z,17.60
2022-12-17T21:56:18.621Z,21.97
2022-12-17T21:58:46.595Z,18.27
2022-12-17T22:01:26.080Z,20.83
2022-12-17T22:03:54.673Z,21.63
2022-12-17T22:06:31.457Z,21.77
2022-12-17T22:09:10.418Z,19.97
2022-12-17T22:12:10.841Z,27.50
2022-12-17T22:14:37.857Z,18.20
2022-12-17T22:17:04.617Z,25.07
2022-12-17T22:19:31.349Z,22.40
2022-12-17T22:21:58.232Z,21.20
2022-12-17T22:24:25.690Z,20.20
2022-12-17T22:26:59.925Z,18.60
2022-12-17T22:30:03.588Z,20.70
2022-12-17T22:32:49.250Z,25.67
2022-12-17T22:36:24.448Z,20.87
2022-12-17T22:43:04.232Z,23.03
2022-12-17T22:44:34.588Z,22.27
2022-12-17T22:44:51.816Z,23.83
2022-12-17T22:46:25.616Z,19.90
2022-12-17T22:48:52.470Z,21.30
2022-12-17T22:51:27.573Z,22.13
2022-12-17T22:53:56.716Z,19.20
2022-12-17T22:56:32.313Z,21.40
2022-12-17T22:59:16.466Z,19.90
2022-12-17T23:01:43.836Z,18.73
2022-12-17T23:04:13.651Z,25.50
2022-12-17T23:06:40.942Z,24.67
2022-12-17T23:09:07.796Z,20.53
2022-12-17T23:11:34.544Z,24.70
2022-12-17T23:14:02.823Z,20.40
2022-12-17T23:16:29.690Z,21.10
2022-12-17T23:18:57.030Z,24.97
2022-12-17T23:21:25.890Z,26.23
2022-12-17T23:23:53.832Z,23.83
2022-12-17T23:26:27.565Z,26.53
2022-12-17T23:29:19.347Z,26.20
2022-12-17T23:31:46.927Z,25.87
2022-12-17T23:34:13.910Z,27.60
2022-12-17T23:36:40.701Z,25.00
2022-12-17T23:39:07.685Z,24.53
2022-12-17T23:41:34.606Z,26.63
2022-12-17T23:44:01.378Z,22.80
2022-12-17T23:46:29.681Z,25.57
2022-12-17T23:48:56.483Z,22.33
2022-12-17T23:51:24.703Z,23.30
2022-12-17T23:53:51.691Z,26.90
2022-12-17T23:56:18.500Z,23.10
2022-12-17T23:58:46.541Z,20.10
